createdAt,value
2022-08-17T04:45:59.947Z,18.90
2022-08-17T04:47:00.937Z,18.92
2022-08-17T04:48:00.935Z,18.92
2022-08-17T04:49:00.914Z,18.95
2022-08-17T04:50:00.899Z,18.99
2022-08-17T04:51:00.887Z,18.98
2022-08-17T04:52:04.402Z,18.95
2022-08-17T04:53:01.255Z,18.98
2022-08-17T04:54:00.853Z,18.95
2022-08-17T04:55:00.850Z,18.98
2022-08-17T04:56:00.833Z,18.98
2022-08-17T04:57:00.829Z,18.95
2022-08-17T04:58:00.825Z,18.95
2022-08-17T04:59:00.807Z,18.99
2022-08-17T05:00:00.786Z,18.95
2022-08-17T05:01:00.814Z,18.98
2022-08-17T05:02:00.780Z,18.98
2022-08-17T05:03:00.776Z,18.98
2022-08-17T05:04:00.749Z,18.99
2022-08-17T05:05:00.744Z,18.99
2022-08-17T05:06:00.730Z,18.99
2022-08-17T05:07:00.732Z,19.00
2022-08-17T05:08:00.720Z,19.00
2022-08-17T05:09:00.709Z,19.04
2022-08-17T05:10:00.684Z,19.08
2022-08-17T05:11:00.677Z,19.10
2022-08-17T05:12:00.664Z,19.14
2022-08-17T05:13:00.689Z,19.21
2022-08-17T05:14:00.642Z,19.23
2022-08-17T05:15:00.633Z,19.31
2022-08-17T05:16:00.620Z,19.33
2022-08-17T05:17:00.614Z,19.37
2022-08-17T05:18:00.611Z,19.41
2022-08-17T05:19:00.595Z,19.43
2022-08-17T05:20:00.576Z,19.47
2022-08-17T05:21:00.571Z,19.51
2022-08-17T05:22:00.557Z,19.55
2022-08-17T05:23:00.563Z,19.58
2022-08-17T05:24:00.534Z,19.62
2022-08-17T05:25:01.830Z,19.62
2022-08-17T05:26:00.514Z,19.66
2022-08-17T05:27:06.607Z,19.68
2022-08-17T05:28:00.515Z,19.71
2022-08-17T05:29:02.740Z,19.77
2022-08-17T05:30:00.468Z,19.84
2022-08-17T05:31:00.467Z,19.88
2022-08-17T05:32:00.451Z,19.95
2022-08-17T05:33:00.462Z,19.99
2022-08-17T05:34:00.429Z,20.05
2022-08-17T05:35:00.770Z,20.14
2022-08-17T05:36:00.406Z,20.21
2022-08-17T05:37:00.399Z,20.26
2022-08-17T05:38:00.405Z,20.39
2022-08-17T05:39:00.378Z,20.52
2022-08-17T05:40:00.550Z,20.58
2022-08-17T05:41:00.360Z,20.72
2022-08-17T05:42:00.342Z,20.80
2022-08-17T05:43:00.355Z,20.92
2022-08-17T05:44:00.324Z,20.99
2022-08-17T05:45:00.328Z,21.12
2022-08-17T05:46:00.299Z,21.19
2022-08-17T05:47:00.297Z,21.27
2022-08-17T05:48:00.281Z,21.38
2022-08-17T05:49:00.289Z,21.44
2022-08-17T05:50:00.261Z,21.59
2022-08-17T05:51:00.250Z,21.62
2022-08-17T05:52:00.243Z,21.72
2022-08-17T05:53:00.226Z,21.84
2022-08-17T05:54:00.234Z,21.96
2022-08-17T05:55:00.216Z,22.09
2022-08-17T05:56:00.192Z,22.21
2022-08-17T05:57:00.186Z,22.28
2022-08-17T05:58:00.270Z,22.33
2022-08-17T05:59:00.175Z,22.42
2022-08-17T06:00:00.198Z,22.46
2022-08-17T06:01:00.198Z,22.54
2022-08-17T06:02:00.127Z,22.57
2022-08-17T06:03:00.120Z,22.58
2022-08-17T06:04:00.116Z,22.62
2022-08-17T06:05:00.102Z,22.64
2022-08-17T06:06:00.086Z,22.70
2022-08-17T06:07:00.077Z,22.75
2022-08-17T06:08:00.061Z,22.85
2022-08-17T06:09:00.070Z,22.98
2022-08-17T06:10:00.047Z,23.09
2022-08-17T06:11:00.028Z,23.16
2022-08-17T06:12:00.016Z,23.22
2022-08-17T06:13:00.009Z,23.28
2022-08-17T06:14:00.034Z,23.27
2022-08-17T06:14:59.991Z,23.32
2022-08-17T06:15:59.976Z,23.33
2022-08-17T06:16:59.972Z,23.38
2022-08-17T06:18:00.477Z,23.43
2022-08-17T06:18:59.962Z,23.54
2022-08-17T06:19:59.933Z,23.60
2022-08-17T06:20:59.926Z,23.68
2022-08-17T06:21:59.908Z,23.75
2022-08-17T06:22:59.907Z,23.80
2022-08-17T06:23:59.902Z,23.85
2022-08-17T06:24:59.884Z,23.88
2022-08-17T06:25:59.870Z,23.93
2022-08-17T06:26:59.863Z,23.94
2022-08-17T06:27:59.847Z,24.03
2022-08-17T06:28:59.852Z,24.06
2022-08-17T06:29:59.826Z,24.15
2022-08-17T06:31:01.386Z,24.21
2022-08-17T06:31:59.804Z,24.24
2022-08-17T06:32:59.800Z,24.27
2022-08-17T06:33:59.797Z,24.31
2022-08-17T06:34:59.777Z,24.28
2022-08-17T06:35:59.763Z,24.28
2022-08-17T06:36:59.769Z,24.34
2022-08-17T06:37:59.740Z,24.34
2022-08-17T06:38:59.746Z,24.35
2022-08-17T06:39:59.791Z,24.35
2022-08-17T06:40:59.708Z,24.39
2022-08-17T06:41:59.698Z,24.43
2022-08-17T06:43:05.300Z,24.47
2022-08-17T06:43:59.708Z,24.49
2022-08-17T06:44:59.667Z,24.53
2022-08-17T06:45:59.655Z,24.53
2022-08-17T06:46:59.648Z,24.57
2022-08-17T06:47:59.634Z,24.57
2022-08-17T06:48:59.625Z,24.60
2022-08-17T06:49:59.628Z,24.68
2022-08-17T06:50:59.607Z,24.71
2022-08-17T06:51:59.591Z,24.71
2022-08-17T06:52:59.883Z,24.77
2022-08-17T06:53:59.580Z,24.77
2022-08-17T06:54:59.602Z,24.84
2022-08-17T06:55:59.547Z,24.96
2022-08-17T06:56:59.546Z,25.09
2022-08-17T06:57:59.523Z,25.06
2022-08-17T06:58:59.523Z,25.09
2022-08-17T06:59:59.515Z,25.18
2022-08-17T07:00:59.587Z,25.23
2022-08-17T07:01:59.481Z,25.27
2022-08-17T07:02:59.481Z,25.33
2022-08-17T07:03:59.463Z,25.36
2022-08-17T07:04:59.476Z,25.38
2022-08-17T07:05:59.441Z,25.42
2022-08-17T07:06:59.431Z,25.40
2022-08-17T07:07:59.414Z,25.45
2022-08-17T07:08:59.408Z,25.47
2022-08-17T07:09:59.407Z,25.46
2022-08-17T07:10:59.387Z,25.43
2022-08-17T07:11:59.376Z,25.45
2022-08-17T07:12:59.363Z,25.40
2022-08-17T07:13:59.356Z,25.32
2022-08-17T07:14:59.356Z,25.30
2022-08-17T07:15:59.335Z,25.23
2022-08-17T07:16:59.333Z,25.20
2022-08-17T07:17:59.582Z,25.09
2022-08-17T07:18:59.366Z,25.03
2022-08-17T07:19:59.303Z,25.02
2022-08-17T07:20:59.282Z,24.95
2022-08-17T07:21:59.293Z,24.95
2022-08-17T07:23:00.501Z,24.87
2022-08-17T07:23:59.245Z,24.81
2022-08-17T07:24:59.260Z,24.85
2022-08-17T07:25:59.226Z,24.83
2022-08-17T07:26:59.225Z,24.84
2022-08-17T07:27:59.198Z,24.83
2022-08-17T07:28:59.201Z,24.83
2022-08-17T07:29:59.198Z,24.85
2022-08-17T07:30:59.175Z,24.84
2022-08-17T07:31:59.159Z,24.83
2022-08-17T07:32:59.147Z,24.84
2022-08-17T07:33:59.145Z,24.81
2022-08-17T07:34:59.147Z,24.85
2022-08-17T07:36:49.010Z,24.88
2022-08-17T07:37:50.138Z,24.88
2022-08-17T07:38:50.009Z,24.84
2022-08-17T07:40:15.261Z,24.90
2022-08-17T07:40:50.009Z,24.99
2022-08-17T07:41:53.232Z,24.96
2022-08-17T07:42:49.974Z,25.00
2022-08-17T07:43:49.952Z,25.00
2022-08-17T07:44:49.941Z,25.03
2022-08-17T07:45:49.942Z,25.08
2022-08-17T07:46:50.023Z,25.02
2022-08-17T07:47:57.307Z,25.08
2022-08-17T07:48:52.272Z,25.09
2022-08-17T07:49:54.558Z,25.15
2022-08-17T07:50:51.823Z,25.28
2022-08-17T07:51:49.911Z,25.30
2022-08-17T07:52:51.409Z,25.25
2022-08-17T07:53:49.844Z,25.32
2022-08-17T07:54:49.840Z,25.35
2022-08-17T07:55:49.839Z,25.52
2022-08-17T07:56:49.815Z,25.47
2022-08-17T07:57:49.954Z,25.52
2022-08-17T07:58:49.797Z,25.61
2022-08-17T07:59:49.817Z,25.62
2022-08-17T08:00:49.787Z,25.70
2022-08-17T08:01:49.808Z,25.76
2022-08-17T08:02:49.760Z,25.83
2022-08-17T08:03:52.582Z,26.02
2022-08-17T08:05:00.761Z,26.06
2022-08-17T08:05:50.962Z,26.20
2022-08-17T08:06:49.714Z,26.36
2022-08-17T08:07:49.868Z,26.50
2022-08-17T08:08:49.692Z,26.57
2022-08-17T08:09:49.679Z,26.87
2022-08-17T08:10:49.682Z,26.89
2022-08-17T08:11:49.659Z,27.07
2022-08-17T08:12:53.747Z,27.09
2022-08-17T08:13:49.623Z,27.13
2022-08-17T08:14:49.641Z,27.17
2022-08-17T08:15:54.246Z,27.04
2022-08-17T08:16:49.659Z,27.06
2022-08-17T08:17:49.754Z,27.03
2022-08-17T08:18:54.109Z,26.85
2022-08-17T08:19:49.570Z,26.76
2022-08-17T08:20:52.065Z,26.69
2022-08-17T08:21:49.543Z,26.76
2022-08-17T08:22:49.552Z,26.85
2022-08-17T08:23:49.516Z,26.99
2022-08-17T08:24:49.519Z,26.99
2022-08-17T08:25:53.323Z,27.39
2022-08-17T08:26:49.504Z,27.96
2022-08-17T08:27:49.721Z,28.39
2022-08-17T08:28:49.475Z,28.71
2022-08-17T08:29:49.458Z,29.00
2022-08-17T08:30:49.475Z,29.12
2022-08-17T08:31:49.437Z,29.15
2022-08-17T08:32:50.433Z,29.21
2022-08-17T08:33:49.416Z,29.15
2022-08-17T08:35:01.736Z,28.73
2022-08-17T08:35:49.402Z,28.21
2022-08-17T08:37:13.003Z,28.06
2022-08-17T08:37:49.559Z,28.02
2022-08-17T08:38:49.369Z,27.97
2022-08-17T08:39:49.437Z,27.85
2022-08-17T08:40:49.346Z,27.82
2022-08-17T08:41:49.348Z,27.67
2022-08-17T08:42:49.343Z,27.69
2022-08-17T08:43:52.804Z,27.60
2022-08-17T08:45:00.801Z,27.70
2022-08-17T08:45:49.315Z,27.81
2022-08-17T08:46:49.307Z,27.88
2022-08-17T08:47:49.324Z,28.02
2022-08-17T08:48:56.603Z,28.12
2022-08-17T08:50:05.627Z,27.94
2022-08-17T08:50:49.272Z,28.04
2022-08-17T08:51:49.235Z,28.21
2022-08-17T08:52:49.226Z,28.24
2022-08-17T08:53:49.215Z,28.55
2022-08-17T08:54:49.223Z,28.86
2022-08-17T08:55:49.214Z,29.45
2022-08-17T08:57:11.924Z,30.26
2022-08-17T08:57:49.309Z,30.76
2022-08-17T08:58:49.166Z,31.06
2022-08-17T08:59:51.160Z,31.62
2022-08-17T09:00:49.170Z,32.23
2022-08-17T09:01:49.207Z,32.33
2022-08-17T09:02:49.124Z,32.56
2022-08-17T09:03:53.066Z,31.72
2022-08-17T09:05:12.934Z,31.81
2022-08-17T09:05:49.513Z,31.44
2022-08-17T09:06:49.080Z,31.16
2022-08-17T09:07:49.150Z,31.54
2022-08-17T09:08:49.065Z,32.07
2022-08-17T09:09:49.038Z,32.48
2022-08-17T09:10:49.045Z,32.28
2022-08-17T09:12:01.126Z,31.93
2022-08-17T09:12:49.020Z,31.16
2022-08-17T09:13:54.413Z,30.88
2022-08-17T09:14:49.000Z,30.73
2022-08-17T09:15:48.994Z,30.17
2022-08-17T09:16:48.971Z,30.23
2022-08-17T09:17:49.032Z,30.24
2022-08-17T09:19:00.039Z,30.47
2022-08-17T09:19:48.948Z,30.20
2022-08-17T09:20:50.350Z,30.31
2022-08-17T09:21:49.031Z,30.51
2022-08-17T09:22:48.923Z,30.39
2022-08-17T09:23:48.896Z,30.46
2022-08-17T09:24:48.906Z,30.35
2022-08-17T09:25:48.873Z,30.47
2022-08-17T09:26:48.872Z,30.35
2022-08-17T09:27:49.026Z,29.86
2022-08-17T09:28:48.851Z,29.78
2022-08-17T09:29:50.017Z,29.80
2022-08-17T09:30:48.830Z,29.83
2022-08-17T09:31:49.672Z,29.95
2022-08-17T09:32:48.809Z,30.15
2022-08-17T09:33:48.790Z,30.29
2022-08-17T09:34:48.810Z,30.49
2022-08-17T09:35:48.774Z,30.73
2022-08-17T09:36:48.769Z,30.79
2022-08-17T09:37:48.985Z,30.83
2022-08-17T09:38:48.745Z,30.88
2022-08-17T09:39:48.826Z,30.99
2022-08-17T09:40:48.729Z,30.73
2022-08-17T09:41:49.488Z,30.70
2022-08-17T09:42:48.711Z,30.80
2022-08-17T09:43:48.689Z,31.12
2022-08-17T09:44:48.701Z,31.17
2022-08-17T09:45:48.669Z,31.73
2022-08-17T09:46:49.514Z,32.38
2022-08-17T09:47:48.653Z,32.72
2022-08-17T09:48:48.648Z,32.59
2022-08-17T09:49:48.654Z,32.55
2022-08-17T09:51:03.527Z,32.41
2022-08-17T09:51:48.613Z,32.52
2022-08-17T09:52:48.608Z,32.57
2022-08-17T09:53:49.827Z,32.55
2022-08-17T09:54:48.601Z,32.50
2022-08-17T09:55:48.566Z,32.37
2022-08-17T09:57:05.697Z,32.33
2022-08-17T09:57:48.586Z,32.13
2022-08-17T09:58:48.545Z,31.73
2022-08-17T09:59:48.544Z,31.48
2022-08-17T10:00:48.558Z,31.26
2022-08-17T10:01:48.510Z,31.16
2022-08-17T10:02:48.509Z,31.09
2022-08-17T10:03:48.486Z,31.19
2022-08-17T10:04:48.489Z,31.23
2022-08-17T10:05:48.466Z,31.28
2022-08-17T10:06:48.466Z,31.44
2022-08-17T10:07:48.440Z,31.56
2022-08-17T10:08:48.439Z,31.43
2022-08-17T10:09:48.441Z,31.39
2022-08-17T10:10:56.222Z,31.19
2022-08-17T10:11:48.443Z,31.14
2022-08-17T10:12:48.415Z,30.80
2022-08-17T10:13:53.014Z,30.79
2022-08-17T10:14:53.491Z,30.69
2022-08-17T10:15:48.370Z,30.61
2022-08-17T10:16:48.356Z,30.60
2022-08-17T10:17:48.451Z,30.47
2022-08-17T10:18:48.341Z,30.51
2022-08-17T10:19:48.340Z,30.65
2022-08-17T10:20:48.316Z,30.86
2022-08-17T10:21:48.300Z,30.97
2022-08-17T10:22:53.280Z,31.13
2022-08-17T10:23:48.288Z,30.91
2022-08-17T10:25:21.408Z,30.55
2022-08-17T10:25:54.978Z,30.62
2022-08-17T10:26:56.286Z,30.76
2022-08-17T10:27:48.244Z,30.76
2022-08-17T10:28:48.232Z,30.97
2022-08-17T10:29:49.763Z,31.41
2022-08-17T10:30:48.214Z,31.72
2022-08-17T10:31:48.200Z,31.78
2022-08-17T10:32:48.198Z,32.03
2022-08-17T10:33:48.177Z,32.18
2022-08-17T10:34:48.188Z,32.18
2022-08-17T10:35:48.159Z,32.06
2022-08-17T10:36:48.155Z,31.75
2022-08-17T10:37:48.144Z,31.20
2022-08-17T10:38:48.131Z,31.10
2022-08-17T10:39:52.014Z,30.75
2022-08-17T10:40:48.115Z,30.61
2022-08-17T10:41:48.091Z,30.51
2022-08-17T10:42:48.090Z,30.27
2022-08-17T10:44:36.805Z,30.24
2022-08-17T10:44:48.094Z,30.22
2022-08-17T10:45:48.073Z,30.17
2022-08-17T10:46:48.051Z,30.11
2022-08-17T10:47:55.597Z,30.01
2022-08-17T10:48:48.034Z,29.87
2022-08-17T10:49:48.223Z,29.65
2022-08-17T10:50:48.022Z,29.53
2022-08-17T10:51:47.992Z,29.45
2022-08-17T10:52:47.986Z,29.31
2022-08-17T10:53:47.973Z,29.14
2022-08-17T10:54:47.971Z,28.93
2022-08-17T10:55:47.974Z,28.67
2022-08-17T10:56:47.949Z,28.62
2022-08-17T10:57:48.041Z,28.54
2022-08-17T10:58:47.926Z,28.40
2022-08-17T10:59:47.915Z,28.33
2022-08-17T11:00:47.952Z,28.24
2022-08-17T11:01:47.899Z,28.21
2022-08-17T11:02:47.879Z,28.24
2022-08-17T11:03:47.872Z,28.21
2022-08-17T11:04:47.873Z,28.25
2022-08-17T11:05:47.853Z,28.18
2022-08-17T11:06:47.843Z,28.18
2022-08-17T11:07:47.834Z,28.19
2022-08-17T11:08:47.819Z,28.21
2022-08-17T11:09:47.826Z,28.11
2022-08-17T11:10:51.940Z,28.09
2022-08-17T11:11:47.786Z,27.82
2022-08-17T11:12:47.901Z,27.65
2022-08-17T11:13:47.765Z,27.34
2022-08-17T11:14:47.768Z,27.18
2022-08-17T11:15:47.750Z,26.99
2022-08-17T11:16:47.740Z,26.85
2022-08-17T11:17:47.727Z,26.69
2022-08-17T11:18:47.709Z,26.69
2022-08-17T11:19:47.719Z,26.67
2022-08-17T11:20:47.695Z,26.69
2022-08-17T11:21:47.700Z,26.67
2022-08-17T11:22:47.664Z,26.60
2022-08-17T11:23:47.656Z,26.58
2022-08-17T11:24:47.666Z,26.60
2022-08-17T11:25:47.638Z,26.66
2022-08-17T11:26:47.626Z,26.72
2022-08-17T11:27:47.616Z,26.82
2022-08-17T11:28:47.602Z,26.91
2022-08-17T11:29:52.511Z,26.97
2022-08-17T11:30:48.564Z,27.02
2022-08-17T11:31:47.579Z,27.13
2022-08-17T11:32:52.907Z,27.10
2022-08-17T11:33:47.557Z,27.19
2022-08-17T11:34:47.535Z,27.25
2022-08-17T11:35:47.544Z,27.14
2022-08-17T11:36:47.512Z,27.18
2022-08-17T11:37:47.505Z,27.28
2022-08-17T11:38:47.492Z,27.36
2022-08-17T11:39:47.553Z,27.39
2022-08-17T11:40:47.488Z,27.28
2022-08-17T11:41:47.462Z,27.24
2022-08-17T11:42:47.454Z,27.22
2022-08-17T11:43:47.435Z,27.22
2022-08-17T11:44:47.422Z,27.22
2022-08-17T11:45:47.426Z,27.25
2022-08-17T11:46:52.676Z,27.31
2022-08-17T11:48:02.478Z,27.36
2022-08-17T11:48:47.381Z,27.43
2022-08-17T11:49:47.387Z,27.40
2022-08-17T11:50:47.355Z,27.39
2022-08-17T11:51:47.362Z,27.36
2022-08-17T11:52:47.362Z,27.28
2022-08-17T11:53:47.333Z,27.25
2022-08-17T11:54:47.352Z,27.21
2022-08-17T11:55:47.301Z,27.24
2022-08-17T11:56:47.283Z,27.27
2022-08-17T11:57:47.484Z,27.29
2022-08-17T11:58:47.267Z,27.25
2022-08-17T11:59:47.265Z,27.27
2022-08-17T12:00:47.262Z,27.24
2022-08-17T12:01:47.229Z,27.25
2022-08-17T12:02:48.629Z,27.28
2022-08-17T12:03:55.346Z,27.28
2022-08-17T12:04:47.249Z,27.28
2022-08-17T12:05:47.219Z,27.24
2022-08-17T12:06:47.169Z,27.17
2022-08-17T12:07:47.164Z,27.14
2022-08-17T12:08:47.150Z,27.10
2022-08-17T12:09:47.168Z,27.18
2022-08-17T12:10:47.142Z,27.22
2022-08-17T12:12:01.622Z,27.24
2022-08-17T12:12:47.102Z,27.25
2022-08-17T12:13:47.085Z,27.25
2022-08-17T12:15:47.096Z,27.18
2022-08-17T12:16:47.060Z,27.06
2022-08-17T12:17:47.058Z,26.99
2022-08-17T12:18:47.038Z,26.80
2022-08-17T12:19:47.039Z,26.80
2022-08-17T12:20:47.033Z,26.77
2022-08-17T12:21:47.005Z,26.75
2022-08-17T12:22:46.990Z,26.70
2022-08-17T12:23:46.986Z,26.76
2022-08-17T12:24:46.967Z,26.72
2022-08-17T12:25:47.145Z,26.72
2022-08-17T12:26:46.944Z,26.76
2022-08-17T12:28:05.434Z,26.88
2022-08-17T12:28:46.933Z,26.94
2022-08-17T12:29:46.932Z,27.03
2022-08-17T12:30:46.905Z,27.07
2022-08-17T12:31:46.917Z,27.10
2022-08-17T12:32:46.881Z,27.14
2022-08-17T12:33:46.875Z,27.19
2022-08-17T12:34:46.869Z,27.13
2022-08-17T12:35:46.849Z,27.04
2022-08-17T12:36:46.847Z,27.09
2022-08-17T12:37:46.923Z,27.13
2022-08-17T12:38:47.186Z,27.19
2022-08-17T12:39:46.846Z,27.21
2022-08-17T12:40:46.788Z,27.27
2022-08-17T12:41:46.949Z,27.34
2022-08-17T12:42:46.763Z,27.50
2022-08-17T12:43:46.763Z,27.77
2022-08-17T12:44:50.504Z,27.88
2022-08-17T12:45:46.734Z,27.90
2022-08-17T12:46:46.731Z,28.15
2022-08-17T12:47:46.832Z,28.25
2022-08-17T12:48:58.962Z,28.39
2022-08-17T12:49:46.692Z,28.54
2022-08-17T12:50:46.680Z,29.05
2022-08-17T12:51:46.668Z,29.55
2022-08-17T12:52:46.654Z,30.08
2022-08-17T12:53:46.649Z,30.45
2022-08-17T12:54:46.641Z,30.47
2022-08-17T12:55:46.654Z,29.89
2022-08-17T12:56:47.616Z,29.85
2022-08-17T12:57:46.632Z,29.78
2022-08-17T12:58:46.593Z,29.73
2022-08-17T12:59:46.608Z,29.73
2022-08-17T13:00:47.627Z,29.60
2022-08-17T13:01:46.647Z,29.28
2022-08-17T13:02:46.547Z,29.19
2022-08-17T13:03:46.546Z,29.14
2022-08-17T13:04:46.550Z,29.23
2022-08-17T13:05:46.516Z,29.30
2022-08-17T13:06:46.509Z,29.57
2022-08-17T13:07:46.670Z,29.55
2022-08-17T13:08:46.487Z,29.19
2022-08-17T13:09:46.496Z,28.90
2022-08-17T13:10:46.464Z,28.83
2022-08-17T13:11:46.464Z,28.83
2022-08-17T13:12:46.447Z,28.89
2022-08-17T13:13:46.438Z,29.15
2022-08-17T13:14:46.445Z,29.36
2022-08-17T13:15:46.418Z,29.39
2022-08-17T13:16:46.407Z,29.55
2022-08-17T13:17:46.447Z,29.61
2022-08-17T13:18:46.384Z,29.65
2022-08-17T13:19:46.398Z,29.53
2022-08-17T13:20:46.360Z,29.34
2022-08-17T13:21:46.350Z,29.18
2022-08-17T13:22:46.347Z,28.95
2022-08-17T13:23:53.561Z,28.92
2022-08-17T13:24:46.348Z,29.00
2022-08-17T13:25:46.325Z,29.04
2022-08-17T13:26:46.301Z,28.85
2022-08-17T13:27:46.394Z,28.64
2022-08-17T13:28:46.275Z,28.49
2022-08-17T13:29:51.462Z,28.17
2022-08-17T13:30:46.267Z,28.04
2022-08-17T13:31:56.406Z,28.09
2022-08-17T13:32:46.254Z,28.18
2022-08-17T13:33:46.237Z,28.14
2022-08-17T13:35:07.802Z,28.03
2022-08-17T13:35:49.923Z,28.04
2022-08-17T13:36:46.197Z,28.12
2022-08-17T13:37:46.216Z,28.18
2022-08-17T13:38:46.178Z,28.18
2022-08-17T13:39:46.213Z,28.15
2022-08-17T13:40:46.156Z,28.15
2022-08-17T13:41:46.151Z,28.24
2022-08-17T13:42:52.863Z,28.41
2022-08-17T13:43:46.136Z,28.62
2022-08-17T13:44:46.130Z,28.98
2022-08-17T13:45:46.107Z,29.26
2022-08-17T13:46:46.095Z,29.63
2022-08-17T13:47:46.174Z,29.95
2022-08-17T13:48:46.069Z,30.26
2022-08-17T13:49:48.905Z,30.27
2022-08-17T13:50:46.055Z,30.10
2022-08-17T13:51:46.048Z,30.11
2022-08-17T13:52:50.065Z,30.24
2022-08-17T13:53:46.032Z,30.51
2022-08-17T13:54:46.043Z,30.61
2022-08-17T13:55:46.005Z,30.73
2022-08-17T13:56:46.003Z,30.97
2022-08-17T13:57:46.108Z,31.10
2022-08-17T13:58:45.967Z,30.65
2022-08-17T13:59:54.767Z,30.37
2022-08-17T14:00:45.958Z,30.13
2022-08-17T14:01:52.562Z,29.80
2022-08-17T14:02:45.935Z,29.74
2022-08-17T14:03:45.923Z,29.80
2022-08-17T14:04:45.931Z,29.87
2022-08-17T14:05:45.901Z,29.94
2022-08-17T14:06:53.013Z,29.63
2022-08-17T14:07:45.890Z,29.74
2022-08-17T14:08:45.867Z,29.85
2022-08-17T14:09:45.863Z,29.98
2022-08-17T14:10:45.870Z,30.10
2022-08-17T14:11:45.840Z,30.07
2022-08-17T14:12:45.831Z,30.10
2022-08-17T14:13:46.454Z,30.02
2022-08-17T14:14:45.830Z,30.19
2022-08-17T14:15:56.243Z,30.38
2022-08-17T14:16:45.795Z,30.39
2022-08-17T14:17:45.780Z,30.51
2022-08-17T14:18:56.650Z,30.46
2022-08-17T14:19:45.786Z,30.67
2022-08-17T14:20:45.747Z,30.86
2022-08-17T14:21:45.738Z,30.95
2022-08-17T14:22:45.729Z,31.06
2022-08-17T14:23:54.341Z,31.02
2022-08-17T14:24:45.715Z,30.91
2022-08-17T14:25:45.718Z,31.06
2022-08-17T14:26:45.682Z,30.86
2022-08-17T14:27:53.590Z,30.84
2022-08-17T14:28:56.262Z,30.92
2022-08-17T14:29:45.663Z,30.69
2022-08-17T14:30:45.699Z,30.37
2022-08-17T14:31:48.532Z,29.83
2022-08-17T14:32:45.631Z,29.71
2022-08-17T14:33:45.617Z,29.28
2022-08-17T14:34:45.616Z,29.14
2022-08-17T14:35:45.593Z,29.19
2022-08-17T14:36:48.614Z,29.33
2022-08-17T14:37:45.579Z,29.43
2022-08-17T14:38:45.560Z,29.33
2022-08-17T14:39:45.598Z,29.37
2022-08-17T14:40:45.544Z,29.49
2022-08-17T14:41:45.589Z,29.41
2022-08-17T14:42:45.931Z,29.58
2022-08-17T14:43:45.520Z,29.71
2022-08-17T14:44:45.517Z,29.82
2022-08-17T14:45:45.503Z,30.04
2022-08-17T14:46:45.478Z,30.29
2022-08-17T14:47:45.475Z,30.38
2022-08-17T14:48:45.467Z,30.46
2022-08-17T14:49:47.647Z,30.60
2022-08-17T14:50:45.442Z,30.77
2022-08-17T14:51:45.432Z,30.98
2022-08-17T14:52:45.421Z,30.92
2022-08-17T14:53:45.413Z,30.89
2022-08-17T14:54:46.002Z,30.75
2022-08-17T14:55:45.394Z,30.89
2022-08-17T14:56:45.375Z,30.83
2022-08-17T14:57:45.495Z,30.75
2022-08-17T14:58:45.356Z,30.75
2022-08-17T14:59:45.374Z,30.80
2022-08-17T15:00:45.348Z,30.73
2022-08-17T15:01:45.429Z,30.77
2022-08-17T15:02:45.321Z,30.54
2022-08-17T15:03:45.331Z,30.37
2022-08-17T15:04:45.832Z,30.39
2022-08-17T15:05:45.294Z,30.32
2022-08-17T15:06:45.273Z,30.27
2022-08-17T15:07:45.272Z,29.97
2022-08-17T15:08:45.261Z,29.71
2022-08-17T15:09:45.264Z,29.70
2022-08-17T15:10:45.286Z,29.83
2022-08-17T15:11:45.229Z,29.79
2022-08-17T15:12:45.221Z,29.87
2022-08-17T15:13:52.462Z,29.70
2022-08-17T15:14:45.219Z,29.52
2022-08-17T15:15:45.188Z,29.34
2022-08-17T15:16:45.178Z,29.37
2022-08-17T15:17:45.946Z,29.28
2022-08-17T15:18:45.182Z,29.33
2022-08-17T15:19:45.177Z,29.43
2022-08-17T15:20:45.197Z,29.55
2022-08-17T15:21:45.120Z,29.53
2022-08-17T15:22:45.117Z,29.36
2022-08-17T15:23:45.101Z,29.46
2022-08-17T15:24:45.116Z,29.53
2022-08-17T15:25:45.082Z,29.57
2022-08-17T15:26:45.074Z,29.41
2022-08-17T15:27:45.193Z,29.43
2022-08-17T15:28:49.903Z,29.48
2022-08-17T15:29:45.063Z,29.52
2022-08-17T15:30:45.034Z,29.45
2022-08-17T15:31:45.029Z,29.55
2022-08-17T15:32:50.571Z,29.53
2022-08-17T15:33:45.009Z,29.58
2022-08-17T15:34:45.009Z,29.57
2022-08-17T15:35:44.983Z,29.52
2022-08-17T15:36:49.238Z,29.42
2022-08-17T15:37:45.133Z,29.24
2022-08-17T15:38:44.938Z,29.18
2022-08-17T15:39:44.993Z,29.18
2022-08-17T15:40:44.934Z,29.24
2022-08-17T15:41:44.916Z,29.23
2022-08-17T15:42:44.914Z,29.23
2022-08-17T15:43:44.896Z,29.28
2022-08-17T15:44:44.904Z,29.36
2022-08-17T15:45:44.877Z,29.28
2022-08-17T15:46:44.880Z,29.11
2022-08-17T15:47:44.995Z,29.09
2022-08-17T15:48:44.863Z,28.95
2022-08-17T15:49:44.852Z,28.85
2022-08-17T15:50:44.830Z,28.86
2022-08-17T15:51:44.814Z,28.86
2022-08-17T15:52:44.862Z,28.81
2022-08-17T15:53:44.806Z,28.81
2022-08-17T15:54:45.326Z,28.77
2022-08-17T15:55:44.775Z,28.64
2022-08-17T15:56:44.770Z,28.55
2022-08-17T15:57:44.760Z,28.49
2022-08-17T15:58:44.751Z,28.41
2022-08-17T15:59:44.747Z,28.36
2022-08-17T16:00:53.389Z,28.40
2022-08-17T16:03:15.017Z,28.24
2022-08-17T16:04:04.414Z,28.22
2022-08-17T16:04:26.733Z,28.22
2022-08-17T16:05:01.718Z,28.24
2022-08-17T16:06:01.533Z,28.21
2022-08-17T16:07:01.553Z,28.15
2022-08-17T16:08:01.513Z,28.00
2022-08-17T16:09:01.507Z,27.90
2022-08-17T16:10:01.510Z,27.77
2022-08-17T16:11:01.485Z,27.74
2022-08-17T16:12:01.469Z,27.60
2022-08-17T16:13:01.462Z,27.54
2022-08-17T16:14:01.471Z,27.50
2022-08-17T16:15:01.442Z,27.50
2022-08-17T16:16:01.432Z,27.59
2022-08-17T16:17:01.425Z,27.51
2022-08-17T16:18:01.403Z,27.50
2022-08-17T16:19:01.585Z,27.49
2022-08-17T16:20:01.384Z,27.50
2022-08-17T16:21:01.385Z,27.55
2022-08-17T16:22:01.361Z,27.72
2022-08-17T16:23:01.370Z,27.75
2022-08-17T16:24:01.351Z,27.81
2022-08-17T16:25:01.332Z,27.79
2022-08-17T16:26:01.324Z,27.84
2022-08-17T16:27:01.311Z,27.78
2022-08-17T16:28:01.300Z,27.79
2022-08-17T16:29:01.309Z,27.79
2022-08-17T16:30:01.277Z,27.63
2022-08-17T16:31:01.278Z,27.57
2022-08-17T16:32:01.303Z,27.41
2022-08-17T16:33:01.254Z,27.39
2022-08-17T16:34:17.353Z,27.41
2022-08-17T16:35:01.247Z,27.43
2022-08-17T16:36:01.227Z,27.51
2022-08-17T16:37:01.211Z,27.54
2022-08-17T16:38:01.193Z,27.55
2022-08-17T16:39:01.211Z,27.50
2022-08-17T16:40:01.212Z,27.43
2022-08-17T16:41:01.171Z,27.29
2022-08-17T16:42:01.151Z,27.27
2022-08-17T16:43:01.147Z,27.09
2022-08-17T16:44:01.156Z,27.03
2022-08-17T16:45:01.132Z,26.99
2022-08-17T16:46:01.108Z,26.91
2022-08-17T16:47:01.104Z,26.88
2022-08-17T16:48:01.090Z,26.82
2022-08-17T16:49:01.103Z,26.70
2022-08-17T16:50:01.065Z,26.60
2022-08-17T16:51:03.945Z,26.57
2022-08-17T16:52:01.047Z,26.54
2022-08-17T16:53:01.043Z,26.51
2022-08-17T16:54:01.033Z,26.48
2022-08-17T16:55:01.015Z,26.51
2022-08-17T16:56:01.004Z,26.48
2022-08-17T16:57:00.993Z,26.39
2022-08-17T16:58:00.978Z,26.36
2022-08-17T16:59:07.285Z,26.37
2022-08-17T17:00:00.958Z,26.43
2022-08-17T17:01:01.003Z,26.45
2022-08-17T17:02:00.931Z,26.50
2022-08-17T17:03:00.924Z,26.54
2022-08-17T17:04:00.914Z,26.50
2022-08-17T17:05:00.919Z,26.51
2022-08-17T17:06:00.892Z,26.47
2022-08-17T17:07:00.884Z,26.48
2022-08-17T17:08:00.871Z,26.51
2022-08-17T17:09:00.860Z,26.54
2022-08-17T17:10:00.853Z,26.55
2022-08-17T17:11:00.834Z,26.52
2022-08-17T17:12:00.821Z,26.50
2022-08-17T17:13:03.668Z,26.52
2022-08-17T17:14:00.794Z,26.60
2022-08-17T17:15:00.803Z,26.60
2022-08-17T17:16:00.774Z,26.63
2022-08-17T17:17:00.768Z,26.65
2022-08-17T17:18:01.795Z,26.47
2022-08-17T17:19:00.743Z,26.43
2022-08-17T17:20:00.742Z,26.44
2022-08-17T17:21:00.721Z,26.43
2022-08-17T17:22:00.708Z,26.44
2022-08-17T17:23:00.704Z,26.36
2022-08-17T17:24:00.685Z,26.39
2022-08-17T17:25:00.688Z,26.43
2022-08-17T17:26:00.649Z,26.36
2022-08-17T17:27:01.380Z,26.28
2022-08-17T17:28:00.654Z,26.20
2022-08-17T17:29:00.634Z,26.21
2022-08-17T17:30:00.638Z,26.18
2022-08-17T17:31:02.209Z,26.18
2022-08-17T17:32:00.598Z,26.17
2022-08-17T17:33:00.594Z,26.15
2022-08-17T17:34:00.587Z,26.07
2022-08-17T17:35:00.582Z,25.99
2022-08-17T17:36:00.556Z,25.92
2022-08-17T17:37:00.546Z,25.88
2022-08-17T17:38:00.535Z,25.82
2022-08-17T17:39:00.532Z,25.80
2022-08-17T17:40:00.709Z,25.75